Flight Track Log - Related Links

Times and Time Zones

All times are in EDT time to prevent confusion due to time zone crossing. See the AAL1428 flight status page for this flight to view local times or setup timezone preferences in your user account.

Time Position Orientation Groundspeed Altitude Reporting Facility
EDT Latitude Longitude Course Direction KTS MPH feet Rate Location/Type
Sun 01:54:18 PM 29.5200 -98.4569 130° Southeast 161 185 1,900  Level Houston Center
Sun 01:54:48 PM 29.5056 -98.4372 130° Southeast 167 192 2,600 1,978 Climbing Houston Center
Sun 01:55:49 PM 29.4667 -98.3794 128° Southeast 236 272 4,900 2,203 Climbing Houston Center
Sun 01:56:07 PM 29.4578 -98.3661 127° Southeast 224 258 5,500 2,400 Climbing Houston Center
Sun 01:56:44 PM 29.4486 -98.3217 103° East 256 295 7,100 2,613 Climbing Houston Center
Sun 01:57:09 PM 29.4764 -98.3014 32° Northeast 254 292 8,200 2,093 Climbing Houston Center
Sun 01:58:10 PM 29.5533 -98.3072 356° North 280 322 10,100 2,146 Climbing Houston Center
Sun 01:59:12 PM 29.6444 -98.3222 352° North 306 352 12,600 2,390 Climbing Houston Center
Sun 02:00:13 PM 29.7386 -98.3369 352° North 340 391 15,000 2,293 Climbing Houston Center
Sun 02:01:15 PM 29.8381 -98.3517 353° North 359 413 17,300 2,032 Climbing Houston Center
Sun 02:02:17 PM 29.9506 -98.3689 352° North 379 436 19,200 1,902 Climbing Houston Center
Sun 02:03:18 PM 30.0597 -98.3861 352° North 394 453 21,200 2,049 Climbing Houston Center
Sun 02:04:20 PM 30.1822 -98.3836 North 409 471 23,400 1,854 Climbing Houston Center
Sun 02:05:21 PM 30.2947 -98.3669 North 407 468 25,000 1,707 Climbing Houston Center
Sun 02:06:23 PM 30.3964 -98.3514 North 416 479 26,900 1,500 Climbing Houston Center
Sun 02:07:25 PM 30.5097 -98.3339 North 410 472 28,100 1,024 Climbing Houston Center
Sun 02:08:26 PM 30.6494 -98.3136 North 423 487 29,000 439 Climbing Houston Center
Sun 02:09:28 PM 30.7753 -98.2950 North 443 510 29,000  Level Houston Center
Sun 02:10:29 PM 30.9008 -98.2767 North 447 514 29,000  Level Houston Center
Sun 02:11:31 PM 31.0253 -98.2572 North 445 512 29,000  Level Houston Center
Sun 02:12:22 PM 31.1311 -98.2433 North 447 514 29,000 -541 Level Fort Worth Center
Sun 02:13:22 PM 31.2567 -98.2275 North 447 514 28,000 -1,100 Descending Fort Worth Center
Sun 02:14:22 PM 31.3819 -98.2042 North 447 514 26,800 -1,500 Descending Fort Worth Center
Sun 02:15:22 PM 31.5053 -98.1881 North 442 509 25,000 -1,850 Descending Fort Worth Center
Sun 02:16:22 PM 31.6183 -98.1428 19° North 437 503 23,100 -1,700 Descending Fort Worth Center
Sun 02:17:22 PM 31.7186 -98.0947 22° Northeast 432 497 21,600 -1,650 Descending Fort Worth Center
Sun 02:18:22 PM 31.8317 -98.0369 23° Northeast 432 497 19,800 -1,750 Descending Fort Worth Center
Sun 02:19:22 PM 31.9428 -97.9839 22° Northeast 432 497 18,100 -1,700 Descending Fort Worth Center
Sun 02:20:22 PM 32.0536 -97.9281 23° Northeast 416 479 16,400 -1,550 Descending Fort Worth Center
Sun 02:21:22 PM 32.1414 -97.8844 23° Northeast 385 443 15,000 -1,450 Descending Fort Worth Center
Sun 02:22:22 PM 32.2272 -97.7989 40° Northeast 364 419 13,500 -1,500 Descending Fort Worth Center
Sun 02:23:22 PM 32.2861 -97.7256 46° Northeast 343 395 12,000 -1,250 Descending Fort Worth Center
Sun 02:24:22 PM 32.3572 -97.6422 45° Northeast 328 377 11,000 -500 Descending Fort Worth Center
Sun 02:25:22 PM 32.4158 -97.5683 47° Northeast 328 377 11,000  Level Fort Worth Center
Sun 02:26:22 PM 32.4867 -97.4847 45° Northeast 328 377 11,000  Level Fort Worth Center
Sun 02:27:22 PM 32.5453 -97.4133 46° Northeast 328 377 11,000  Level Fort Worth Center
Sun 02:28:22 PM 32.6161 -97.3272 46° Northeast 328 377 11,000  Level Fort Worth Center
Sun 02:29:22 PM 32.6725 -97.2578 46° Northeast 328 377 11,000  Level Fort Worth Center
Sun 02:30:22 PM 32.7308 -97.1911 44° Northeast 282 325 11,000 -150 Level Fort Worth Center
Sun 02:31:22 PM 32.7872 -97.1664 20° North 258 297 10,700 -1,300 Descending Fort Worth Center
Sun 02:32:22 PM 32.8622 -97.1686 359° North 233 268 8,400 -2,000 Descending Fort Worth Center
Sun 02:33:22 PM 32.9314 -97.1783 353° North 233 268 6,700 -1,950 Descending Fort Worth Center
Sun 02:34:22 PM 33.0000 -97.1533 17° North 238 274 4,500 -2,150 Descending Fort Worth Center
Sun 02:35:22 PM 33.0231 -97.0914 66° East 198 228 2,400 -1,400 Descending Fort Worth Center
Sun 02:36:22 PM 32.9728 -97.0594 152° Southeast 119 137 1,700 -744 Descending Fort Worth Center
Sun 02:37:31 PM 32.9333 -97.0500 169° South 127 146 800 -783 Descending Dallas / Fort Worth TRACON

Login

Don't have an account? Register now (free) for customized features, flight alerts, and more!